createdAt,value
2016-11-11T00:00:20.595Z,933.04
2016-11-11T00:01:30.916Z,933.02
2016-11-11T00:02:41.233Z,933.01
2016-11-11T00:03:51.657Z,933.01
2016-11-11T00:05:02.004Z,933.01
2016-11-11T00:06:26.894Z,933.01
2016-11-11T00:07:37.214Z,933.03
2016-11-11T00:09:02.105Z,933
2016-11-11T00:10:12.458Z,932.99
2016-11-11T00:11:22.797Z,933.06
2016-11-11T00:12:33.215Z,933.07
2016-11-11T00:13:43.629Z,933.06
2016-11-11T00:14:54.042Z,933
2016-11-11T00:16:04.459Z,933.02
2016-11-11T00:17:14.896Z,932.98
2016-11-11T00:18:25.803Z,932.99
2016-11-11T00:19:36.244Z,932.98
2016-11-11T00:20:46.755Z,933
2016-11-11T00:21:57.170Z,933.01
2016-11-11T00:23:07.589Z,933.01
2016-11-11T00:24:18.002Z,933.02
2016-11-11T00:25:42.967Z,933.08
2016-11-11T00:26:53.481Z,933.04
2016-11-11T00:28:03.899Z,933.09
2016-11-11T00:29:14.312Z,933.1
2016-11-11T00:30:24.753Z,933.1
2016-11-11T00:31:35.278Z,933.12
2016-11-11T00:32:45.808Z,933.06
2016-11-11T00:33:56.339Z,933.1
2016-11-11T00:35:06.872Z,933.05
2016-11-11T00:36:17.409Z,933.08
2016-11-11T00:37:27.937Z,933.09
2016-11-11T00:38:38.468Z,933.08
2016-11-11T00:39:49.002Z,933.09
2016-11-11T00:40:59.541Z,933.14
2016-11-11T00:42:10.074Z,933.12
2016-11-11T00:43:20.714Z,933.12
2016-11-11T00:44:31.242Z,933.14
2016-11-11T00:45:41.775Z,933.15
2016-11-11T00:46:52.306Z,933.12
2016-11-11T00:48:02.837Z,933.11
2016-11-11T00:49:13.467Z,933.13
2016-11-11T00:50:23.996Z,933.12
2016-11-11T00:51:35.033Z,933.13
2016-11-11T00:52:45.562Z,933.13
2016-11-11T00:53:56.092Z,933.11
2016-11-11T00:55:06.623Z,933.11
2016-11-11T00:56:17.132Z,933.08
2016-11-11T00:57:27.573Z,933.1
2016-11-11T00:58:38.013Z,933.09
2016-11-11T00:59:48.474Z,933.04
2016-11-11T01:01:13.459Z,933.07
2016-11-11T01:02:23.904Z,933.08
2016-11-11T01:03:34.340Z,933.1
2016-11-11T01:04:44.778Z,933.08
2016-11-11T01:05:55.214Z,933.09
2016-11-11T01:07:05.755Z,933.07
2016-11-11T01:08:16.202Z,933.04
2016-11-11T01:09:26.641Z,933.09
2016-11-11T01:10:37.080Z,933.09
2016-11-11T01:11:47.517Z,933.12
2016-11-11T01:12:57.955Z,933.1
2016-11-11T01:14:08.399Z,933.12
2016-11-11T01:15:18.837Z,933.12
2016-11-11T01:16:29.275Z,933.13
2016-11-11T01:17:39.711Z,933.11
2016-11-11T01:18:50.249Z,933.1
2016-11-11T01:20:00.717Z,933.07
2016-11-11T01:21:25.701Z,933.04
2016-11-11T01:22:36.138Z,933.06
2016-11-11T01:23:46.621Z,933.07
2016-11-11T01:24:57.066Z,933.01
2016-11-11T01:26:07.514Z,932.99
2016-11-11T01:27:17.953Z,933
2016-11-11T01:28:28.393Z,932.97
2016-11-11T01:29:38.935Z,932.92
2016-11-11T01:30:49.374Z,932.9
2016-11-11T01:31:59.814Z,932.88
2016-11-11T01:33:10.253Z,932.91
2016-11-11T01:34:20.694Z,932.9
2016-11-11T01:35:45.682Z,932.85
2016-11-11T01:38:21.578Z,932.8
2016-11-11T01:39:31.897Z,932.77
2016-11-11T01:40:42.220Z,932.74
2016-11-11T01:41:52.543Z,932.7
2016-11-11T01:43:02.859Z,932.7
2016-11-11T01:44:13.189Z,932.72
2016-11-11T01:45:23.510Z,932.73
2016-11-11T01:46:33.829Z,932.69
2016-11-11T01:47:44.159Z,932.67
2016-11-11T01:48:54.481Z,932.68
2016-11-11T01:50:04.805Z,932.65
2016-11-11T01:51:15.157Z,932.64
2016-11-11T01:52:25.578Z,932.65
2016-11-11T01:53:35.894Z,932.66
2016-11-11T01:55:00.815Z,932.62
2016-11-11T01:57:36.505Z,932.54
2016-11-11T01:58:46.824Z,932.52
2016-11-11T01:59:57.157Z,932.53
2016-11-11T02:01:22.042Z,932.54
2016-11-11T02:02:46.931Z,932.5
2016-11-11T02:03:57.250Z,932.47
2016-11-11T02:05:22.138Z,932.45
2016-11-11T02:06:32.459Z,932.39
2016-11-11T02:07:42.781Z,932.41
2016-11-11T02:08:53.132Z,932.36
2016-11-11T02:10:03.484Z,932.36
2016-11-11T02:11:13.808Z,932.35
2016-11-11T02:12:24.142Z,932.43
2016-11-11T02:13:34.679Z,932.42
2016-11-11T02:14:45.118Z,932.41
2016-11-11T02:15:55.565Z,932.39
2016-11-11T02:17:06.015Z,932.42
2016-11-11T02:18:30.999Z,932.39
2016-11-11T02:19:41.535Z,932.42
2016-11-11T02:20:51.971Z,932.37
2016-11-11T02:22:02.409Z,932.31
2016-11-11T02:23:27.393Z,932.29
2016-11-11T02:24:37.938Z,932.25
2016-11-11T02:25:49.497Z,932.26
2016-11-11T02:26:59.936Z,932.28
2016-11-11T02:28:10.378Z,932.29
2016-11-11T02:29:20.812Z,932.32
2016-11-11T02:30:31.251Z,932.32
2016-11-11T02:31:41.697Z,932.24
2016-11-11T02:32:52.142Z,932.22
2016-11-11T02:34:02.593Z,932.21
2016-11-11T02:35:13.032Z,932.18
2016-11-11T02:36:23.468Z,932.14
2016-11-11T02:37:33.907Z,932.12
2016-11-11T02:38:58.892Z,932.06
2016-11-11T02:40:09.331Z,932.03
2016-11-11T02:41:19.971Z,932
2016-11-11T02:42:30.408Z,931.99
2016-11-11T02:43:55.392Z,931.95
2016-11-11T02:45:05.836Z,931.89
2016-11-11T02:46:16.873Z,931.84
2016-11-11T02:47:27.315Z,931.78
2016-11-11T02:48:37.751Z,931.75
2016-11-11T02:49:48.191Z,931.66
2016-11-11T02:50:58.665Z,931.67
2016-11-11T02:52:09.105Z,931.64
2016-11-11T02:53:19.540Z,931.63
2016-11-11T02:54:29.983Z,931.61
2016-11-11T02:55:40.460Z,931.52
2016-11-11T02:57:05.544Z,931.49
2016-11-11T02:58:16.005Z,931.5
2016-11-11T02:59:26.471Z,931.55
2016-11-11T03:00:36.912Z,931.53
2016-11-11T03:01:47.363Z,931.56
2016-11-11T03:02:57.811Z,931.56
2016-11-11T03:04:08.253Z,931.53
2016-11-11T03:05:18.693Z,931.5
2016-11-11T03:06:29.157Z,931.51
2016-11-11T03:07:39.607Z,931.5
2016-11-11T03:08:50.047Z,931.48
2016-11-11T03:10:00.488Z,931.49
2016-11-11T03:11:10.925Z,931.5
2016-11-11T03:12:21.361Z,931.49
2016-11-11T03:13:31.998Z,931.52
2016-11-11T03:14:42.431Z,931.52
2016-11-11T03:15:52.870Z,931.48
2016-11-11T03:17:03.313Z,931.51
2016-11-11T03:18:13.751Z,931.48
2016-11-11T03:19:38.820Z,931.48
2016-11-11T03:20:49.141Z,931.44
2016-11-11T03:21:59.460Z,931.44
2016-11-11T03:23:09.818Z,931.41
2016-11-11T03:24:20.338Z,931.43
2016-11-11T03:25:45.224Z,931.39
2016-11-11T03:26:55.546Z,931.38
2016-11-11T03:28:05.873Z,931.39
2016-11-11T03:29:16.194Z,931.43
2016-11-11T03:30:41.284Z,931.45
2016-11-11T03:31:51.618Z,931.46
2016-11-11T03:33:16.515Z,931.42
2016-11-11T03:34:26.860Z,931.4
2016-11-11T03:35:37.397Z,931.39
2016-11-11T03:36:47.738Z,931.4
2016-11-11T03:37:58.120Z,931.34
2016-11-11T03:39:08.462Z,931.34
2016-11-11T03:40:18.798Z,931.35
2016-11-11T03:41:29.182Z,931.32
2016-11-11T03:42:39.521Z,931.3
2016-11-11T03:43:49.868Z,931.27
2016-11-11T03:45:00.204Z,931.25
2016-11-11T03:46:10.670Z,931.25
2016-11-11T03:47:21.005Z,931.22
2016-11-11T03:48:31.341Z,931.24
2016-11-11T03:49:41.674Z,931.24
2016-11-11T03:50:52.019Z,931.26
2016-11-11T03:52:02.358Z,931.24
2016-11-11T03:53:12.698Z,931.26
2016-11-11T03:54:23.064Z,931.22
2016-11-11T03:55:33.399Z,931.23
2016-11-11T03:56:43.744Z,931.24
2016-11-11T03:57:54.278Z,931.26
2016-11-11T03:59:04.657Z,931.31
2016-11-11T04:00:14.994Z,931.26
2016-11-11T04:01:25.329Z,931.25
2016-11-11T04:02:35.669Z,931.21
2016-11-11T04:03:46.112Z,931.15
2016-11-11T04:05:11.013Z,931.13
2016-11-11T04:06:21.352Z,931.14
2016-11-11T04:07:31.699Z,931.16
2016-11-11T04:08:42.070Z,931.18
2016-11-11T04:09:52.510Z,931.15
2016-11-11T04:11:02.847Z,931.18
2016-11-11T04:12:13.184Z,931.16
2016-11-11T04:13:23.523Z,931.16
2016-11-11T04:14:33.866Z,931.12
2016-11-11T04:15:44.197Z,931.13
2016-11-11T04:16:54.542Z,931.11
2016-11-11T04:18:04.912Z,931.04
2016-11-11T04:19:15.239Z,931.08
2016-11-11T04:20:25.761Z,931.03
2016-11-11T04:21:36.084Z,931.08
2016-11-11T04:22:46.440Z,931.08
2016-11-11T04:23:56.764Z,931.05
2016-11-11T04:25:21.689Z,931.06
2016-11-11T04:26:32.018Z,931
2016-11-11T04:27:42.342Z,931.01
2016-11-11T04:28:52.663Z,930.99
2016-11-11T04:34:49.400Z,931.01
2016-11-11T04:35:59.719Z,931.05
2016-11-11T04:37:10.053Z,931.01
2016-11-11T04:38:20.374Z,931.04
2016-11-11T04:39:30.695Z,931.05
2016-11-11T04:40:41.025Z,931.04
2016-11-11T04:41:51.344Z,931.01
2016-11-11T04:43:01.664Z,931.03
2016-11-11T04:44:11.990Z,931.08
2016-11-11T04:45:22.308Z,931.09
2016-11-11T04:46:32.629Z,931.08
2016-11-11T04:47:42.949Z,931.1
2016-11-11T04:48:53.270Z,931.13
2016-11-11T04:50:03.593Z,931.13
2016-11-11T04:51:13.915Z,931.14
2016-11-11T04:52:24.437Z,931.1
2016-11-11T04:53:34.756Z,931.12
2016-11-11T04:54:45.076Z,931.06
2016-11-11T04:55:55.396Z,931.07
2016-11-11T04:57:05.722Z,931.07
2016-11-11T04:58:16.051Z,931.11
2016-11-11T04:59:26.373Z,931.12
2016-11-11T05:00:36.703Z,931.14
2016-11-11T05:01:47.142Z,931.19
2016-11-11T05:02:57.580Z,931.15
2016-11-11T05:04:08.144Z,931.16
2016-11-11T05:05:18.598Z,931.16
2016-11-11T05:06:29.052Z,931.17
2016-11-11T05:07:39.510Z,931.12
2016-11-11T05:08:49.995Z,931.12
2016-11-11T05:10:00.484Z,931.06
2016-11-11T05:11:10.941Z,931.06
2016-11-11T05:12:21.394Z,931.04
2016-11-11T05:13:31.847Z,931.04
2016-11-11T05:14:42.297Z,930.99
2016-11-11T05:15:52.752Z,930.98
2016-11-11T05:17:03.210Z,930.99
2016-11-11T05:18:13.672Z,930.98
2016-11-11T05:19:24.123Z,930.96
2016-11-11T05:20:34.574Z,930.93
2016-11-11T05:21:45.125Z,930.9
2016-11-11T05:22:55.581Z,930.86
2016-11-11T05:24:06.522Z,930.87
2016-11-11T05:25:16.973Z,930.89
2016-11-11T05:26:27.428Z,930.82
2016-11-11T05:27:37.981Z,930.86
2016-11-11T05:28:48.435Z,930.87
2016-11-11T05:29:58.893Z,930.86
2016-11-11T05:31:09.343Z,930.9
2016-11-11T05:32:19.795Z,930.89
2016-11-11T05:33:30.446Z,930.9
2016-11-11T05:34:41.393Z,930.89
2016-11-11T05:35:51.740Z,930.85
2016-11-11T05:37:02.184Z,930.84
2016-11-11T05:38:12.599Z,930.83
2016-11-11T05:39:23.010Z,930.83
2016-11-11T05:40:33.422Z,930.78
2016-11-11T05:41:43.834Z,930.8
2016-11-11T05:43:08.792Z,930.77
2016-11-11T05:44:19.203Z,930.77
2016-11-11T05:45:29.714Z,930.79
2016-11-11T05:46:40.125Z,930.78
2016-11-11T05:47:50.540Z,930.74
2016-11-11T05:49:15.504Z,930.72
2016-11-11T05:50:25.913Z,930.71
2016-11-11T05:51:36.338Z,930.72
2016-11-11T05:52:46.751Z,930.74
2016-11-11T05:53:57.196Z,930.7
2016-11-11T05:55:07.813Z,930.74
2016-11-11T05:56:18.221Z,930.71
2016-11-11T05:57:28.638Z,930.72
2016-11-11T05:58:39.050Z,930.71
2016-11-11T05:59:49.947Z,930.71
2016-11-11T06:01:00.964Z,930.72
2016-11-11T06:02:11.376Z,930.68
2016-11-11T06:03:21.789Z,930.7
2016-11-11T06:04:32.194Z,930.71
2016-11-11T06:05:42.606Z,930.71
2016-11-11T06:06:53.218Z,930.67
2016-11-11T06:08:03.647Z,930.66
2016-11-11T06:09:14.183Z,930.62
2016-11-11T06:10:24.719Z,930.63
2016-11-11T06:11:35.248Z,930.6
2016-11-11T06:12:45.978Z,930.58
2016-11-11T06:13:56.515Z,930.52
2016-11-11T06:15:07.047Z,930.54
2016-11-11T06:16:17.574Z,930.53
2016-11-11T06:17:28.101Z,930.54
2016-11-11T06:18:38.741Z,930.55
2016-11-11T06:19:49.271Z,930.56
2016-11-11T06:20:59.798Z,930.57
2016-11-11T06:22:10.341Z,930.59
2016-11-11T06:23:20.874Z,930.59
2016-11-11T06:24:31.507Z,930.6
2016-11-11T06:25:42.036Z,930.62
2016-11-11T06:26:52.573Z,930.6
2016-11-11T06:28:03.140Z,930.63
2016-11-11T06:29:14.165Z,930.66
2016-11-11T06:30:24.696Z,930.68
2016-11-11T06:31:35.224Z,930.66
2016-11-11T06:32:45.753Z,930.68
2016-11-11T06:33:56.282Z,930.65
2016-11-11T06:35:06.817Z,930.69
2016-11-11T06:36:17.452Z,930.7
2016-11-11T06:37:27.985Z,930.72
2016-11-11T06:38:38.514Z,930.75
2016-11-11T06:40:03.575Z,930.72
2016-11-11T06:41:14.110Z,930.71
2016-11-11T06:42:24.659Z,930.67
2016-11-11T06:43:35.052Z,930.69
2016-11-11T06:44:45.372Z,930.7
2016-11-11T06:45:55.699Z,930.68
2016-11-11T06:47:20.586Z,930.71
2016-11-11T06:48:30.907Z,930.73
2016-11-11T06:49:41.228Z,930.74
2016-11-11T06:50:51.548Z,930.75
2016-11-11T06:52:01.971Z,930.79
2016-11-11T06:53:12.287Z,930.74
2016-11-11T06:54:22.615Z,930.76
2016-11-11T06:55:32.936Z,930.72
2016-11-11T06:56:57.827Z,930.68
2016-11-11T06:58:08.448Z,930.66
2016-11-11T06:59:33.334Z,930.69
2016-11-11T07:00:44.138Z,930.73
2016-11-11T07:01:54.464Z,930.77
2016-11-11T07:03:19.455Z,930.77
2016-11-11T07:04:29.779Z,930.82
2016-11-11T07:05:40.129Z,930.83
2016-11-11T07:06:50.451Z,930.84
2016-11-11T07:08:01.348Z,930.84
2016-11-11T07:09:12.147Z,930.83
2016-11-11T07:10:22.468Z,930.85
2016-11-11T07:11:32.796Z,930.87
2016-11-11T07:12:43.119Z,930.83
2016-11-11T07:13:53.540Z,930.84
2016-11-11T07:15:03.864Z,930.85
2016-11-11T07:16:14.666Z,930.88
2016-11-11T07:17:24.985Z,930.89
2016-11-11T07:18:35.303Z,930.88
2016-11-11T07:19:45.824Z,930.87
2016-11-11T07:21:10.715Z,930.86
2016-11-11T07:22:21.033Z,930.94
2016-11-11T07:23:31.354Z,930.97
2016-11-11T07:24:41.713Z,930.93
2016-11-11T07:25:52.335Z,930.88
2016-11-11T07:27:02.660Z,930.86
2016-11-11T07:28:13.008Z,930.85
2016-11-11T07:30:48.636Z,930.74
2016-11-11T07:31:59.047Z,930.72
2016-11-11T07:33:09.461Z,930.73
2016-11-11T07:34:19.897Z,930.71
2016-11-11T07:35:30.314Z,930.73
2016-11-11T07:36:40.727Z,930.76
2016-11-11T07:37:51.161Z,930.78
2016-11-11T07:39:01.574Z,930.76
2016-11-11T07:40:26.534Z,930.78
2016-11-11T07:41:36.945Z,930.72
2016-11-11T07:42:47.357Z,930.72
2016-11-11T07:43:57.809Z,930.69
2016-11-11T07:45:08.222Z,930.68
2016-11-11T07:46:18.836Z,930.69
2016-11-11T07:47:29.251Z,930.67
2016-11-11T07:48:39.665Z,930.64
2016-11-11T07:49:50.081Z,930.64
2016-11-11T07:51:00.492Z,930.61
2016-11-11T07:52:11.011Z,930.58
2016-11-11T07:53:21.424Z,930.59
2016-11-11T07:54:31.834Z,930.55
2016-11-11T07:55:42.246Z,930.56
2016-11-11T07:56:52.666Z,930.59
2016-11-11T07:58:03.088Z,930.6
2016-11-11T07:59:13.505Z,930.63
2016-11-11T08:00:24.398Z,930.6
2016-11-11T08:01:34.817Z,930.57
2016-11-11T08:02:45.233Z,930.61
2016-11-11T08:03:55.845Z,930.57
2016-11-11T08:05:06.258Z,930.63
2016-11-11T08:06:16.669Z,930.65
2016-11-11T08:07:27.085Z,930.66
2016-11-11T08:08:37.498Z,930.68
2016-11-11T08:09:48.102Z,930.66
2016-11-11T08:10:58.867Z,930.64
2016-11-11T08:12:09.784Z,930.69
2016-11-11T08:13:20.176Z,930.7
2016-11-11T08:14:30.492Z,930.72
2016-11-11T08:15:40.811Z,930.78
2016-11-11T08:16:51.169Z,930.79
2016-11-11T08:18:01.983Z,930.81
2016-11-11T08:19:12.334Z,930.75
2016-11-11T08:20:22.823Z,930.76
2016-11-11T08:21:34.048Z,930.83
2016-11-11T08:22:44.387Z,930.83
2016-11-11T08:23:54.831Z,930.86
2016-11-11T08:25:06.030Z,930.88
2016-11-11T08:26:31.012Z,930.83
2016-11-11T08:27:41.549Z,930.89
2016-11-11T08:28:51.989Z,930.89
2016-11-11T08:30:02.429Z,930.93
2016-11-11T08:31:12.895Z,930.95
2016-11-11T08:32:23.531Z,930.96
2016-11-11T08:33:33.974Z,930.96
2016-11-11T08:34:44.409Z,931
2016-11-11T08:35:54.849Z,931.01
2016-11-11T08:37:05.289Z,931.02
2016-11-11T08:38:15.835Z,931.01
2016-11-11T08:39:26.278Z,931.07
2016-11-11T08:40:36.721Z,931.05
2016-11-11T08:41:47.192Z,931.05
2016-11-11T08:42:57.630Z,931.08
2016-11-11T08:44:08.173Z,931.1
2016-11-11T08:45:19.218Z,931.15
2016-11-11T08:46:44.201Z,931.18
2016-11-11T08:47:54.639Z,931.18
2016-11-11T08:49:05.569Z,931.21
2016-11-11T08:50:16.207Z,931.25
2016-11-11T08:51:26.644Z,931.27
2016-11-11T08:52:37.089Z,931.34
2016-11-11T08:53:47.530Z,931.36
2016-11-11T08:55:12.515Z,931.39
2016-11-11T08:56:22.955Z,931.45
2016-11-11T08:57:33.424Z,931.43
2016-11-11T08:58:43.860Z,931.5
2016-11-11T08:59:54.303Z,931.45
2016-11-11T09:01:04.774Z,931.48
2016-11-11T09:02:15.212Z,931.51
2016-11-11T09:03:25.644Z,931.52
2016-11-11T09:04:36.077Z,931.47
2016-11-11T09:05:46.919Z,931.43
2016-11-11T09:06:57.448Z,931.43
2016-11-11T09:08:07.957Z,931.42
2016-11-11T09:09:18.449Z,931.44
2016-11-11T09:10:28.897Z,931.45
2016-11-11T09:11:54.371Z,931.44
2016-11-11T09:13:04.822Z,931.43
2016-11-11T09:14:15.266Z,931.42
2016-11-11T09:15:25.928Z,931.44
2016-11-11T09:16:37.115Z,931.41
2016-11-11T09:19:12.531Z,931.4
2016-11-11T09:20:22.966Z,931.36
2016-11-11T09:21:33.403Z,931.35
2016-11-11T09:22:43.871Z,931.39
2016-11-11T09:23:54.312Z,931.39
2016-11-11T09:25:05.242Z,931.37
2016-11-11T09:26:15.686Z,931.33
2016-11-11T09:27:26.218Z,931.37
2016-11-11T09:28:36.651Z,931.34
2016-11-11T09:29:47.598Z,931.34
2016-11-11T09:30:57.921Z,931.38
2016-11-11T09:32:08.244Z,931.39
2016-11-11T09:33:18.677Z,931.45
2016-11-11T09:34:29.040Z,931.43
2016-11-11T09:35:39.842Z,931.38
2016-11-11T09:36:50.168Z,931.39
2016-11-11T09:38:00.491Z,931.39
2016-11-11T09:39:10.914Z,931.36
2016-11-11T09:40:21.267Z,931.37
2016-11-11T09:41:31.597Z,931.34
2016-11-11T09:42:41.942Z,931.33
2016-11-11T09:43:52.360Z,931.32
2016-11-11T09:45:02.774Z,931.3
2016-11-11T09:46:13.193Z,931.32
2016-11-11T09:47:23.646Z,931.37
2016-11-11T09:48:34.055Z,931.37
2016-11-11T09:49:59.016Z,931.38
2016-11-11T09:51:23.980Z,931.4
2016-11-11T09:52:34.391Z,931.39
2016-11-11T09:53:44.805Z,931.39
2016-11-11T09:54:55.220Z,931.35
2016-11-11T09:56:05.743Z,931.33
2016-11-11T09:57:16.158Z,931.29
2016-11-11T09:58:26.577Z,931.26
2016-11-11T09:59:36.988Z,931.23
2016-11-11T10:00:47.408Z,931.21
2016-11-11T10:01:57.824Z,931.18
2016-11-11T10:03:22.785Z,931.15
2016-11-11T10:04:33.316Z,931.11
2016-11-11T10:05:43.847Z,931.08
2016-11-11T10:06:54.507Z,931.04
2016-11-11T10:08:05.042Z,931.05
2016-11-11T10:09:15.570Z,931.04
2016-11-11T10:10:26.101Z,931.05
2016-11-11T10:11:36.672Z,931.04
2016-11-11T10:12:47.204Z,931.02
2016-11-11T10:13:57.733Z,930.96
2016-11-11T10:15:08.269Z,930.93
2016-11-11T10:16:18.802Z,930.88
2016-11-11T10:17:29.538Z,930.84
2016-11-11T10:18:40.069Z,930.79
2016-11-11T10:20:19.654Z,930.75
2016-11-11T10:21:30.185Z,930.75
2016-11-11T10:22:40.817Z,930.67
2016-11-11T10:23:51.349Z,930.59
2016-11-11T10:25:01.882Z,930.53
2016-11-11T10:26:12.416Z,930.55
2016-11-11T10:27:22.945Z,930.51
2016-11-11T10:28:33.686Z,930.53
2016-11-11T10:29:58.748Z,930.47
2016-11-11T10:31:09.288Z,930.43
2016-11-11T10:33:45.079Z,930.44
2016-11-11T10:34:55.617Z,930.38
2016-11-11T10:36:06.157Z,930.39
2016-11-11T10:37:16.693Z,930.33
2016-11-11T10:38:27.232Z,930.31
2016-11-11T10:39:37.966Z,930.29
2016-11-11T10:40:48.509Z,930.32
2016-11-11T10:41:59.584Z,930.32
2016-11-11T10:43:10.125Z,930.32
2016-11-11T10:44:20.660Z,930.32
2016-11-11T10:45:31.199Z,930.36
2016-11-11T10:46:41.738Z,930.33
2016-11-11T10:47:52.268Z,930.41
2016-11-11T10:49:02.798Z,930.37
2016-11-11T10:50:13.335Z,930.39
2016-11-11T10:51:23.976Z,930.42
2016-11-11T10:52:34.514Z,930.45
2016-11-11T10:53:45.551Z,930.43
2016-11-11T10:54:56.081Z,930.42
2016-11-11T10:56:06.613Z,930.44
2016-11-11T10:57:17.249Z,930.42
2016-11-11T10:58:42.309Z,930.44
2016-11-11T10:59:52.846Z,930.42
2016-11-11T11:01:03.381Z,930.4
2016-11-11T11:03:53.503Z,930.46
2016-11-11T11:05:04.036Z,930.5
2016-11-11T11:06:14.593Z,930.48
2016-11-11T11:07:25.126Z,930.54
2016-11-11T11:08:35.762Z,930.56
2016-11-11T11:09:46.489Z,930.58
2016-11-11T11:10:56.906Z,930.57
2016-11-11T11:12:07.324Z,930.57
2016-11-11T11:13:17.739Z,930.57
2016-11-11T11:14:28.162Z,930.58
2016-11-11T11:15:38.584Z,930.55
2016-11-11T11:16:48.998Z,930.55
2016-11-11T11:17:59.420Z,930.53
2016-11-11T11:19:09.837Z,930.5
2016-11-11T11:20:20.771Z,930.5
2016-11-11T11:21:31.191Z,930.49
2016-11-11T11:22:41.606Z,930.5
2016-11-11T11:23:52.021Z,930.49
2016-11-11T11:25:03.136Z,930.54
2016-11-11T11:26:13.556Z,930.5
2016-11-11T11:27:23.970Z,930.49
2016-11-11T11:28:34.390Z,930.55
2016-11-11T11:29:59.349Z,930.54
2016-11-11T11:31:09.963Z,930.55
2016-11-11T11:32:20.379Z,930.59
2016-11-11T11:33:30.792Z,930.57
2016-11-11T11:34:41.210Z,930.62
2016-11-11T11:35:52.219Z,930.58
2016-11-11T11:37:03.130Z,930.61
2016-11-11T11:38:13.547Z,930.61
2016-11-11T11:39:23.974Z,930.61
2016-11-11T11:40:34.387Z,930.61
2016-11-11T11:41:44.805Z,930.62
2016-11-11T11:42:55.252Z,930.61
2016-11-11T11:44:05.673Z,930.61
2016-11-11T11:45:16.088Z,930.59
2016-11-11T11:46:26.504Z,930.65
2016-11-11T11:47:37.509Z,930.64
2016-11-11T11:48:47.924Z,930.66
2016-11-11T11:49:58.336Z,930.65
2016-11-11T11:51:08.744Z,930.68
2016-11-11T11:52:19.162Z,930.71
2016-11-11T11:53:29.671Z,930.74
2016-11-11T11:54:40.568Z,930.76
2016-11-11T11:55:50.980Z,930.82
2016-11-11T11:57:01.394Z,930.77
2016-11-11T11:58:11.792Z,930.8
2016-11-11T11:59:36.681Z,930.8
2016-11-11T12:01:01.584Z,930.79
2016-11-11T12:02:11.909Z,930.74
2016-11-11T12:03:22.232Z,930.7
2016-11-11T12:04:47.335Z,930.74
2016-11-11T12:05:57.661Z,930.73
2016-11-11T12:07:07.987Z,930.71
2016-11-11T12:08:18.308Z,930.71
2016-11-11T12:09:28.647Z,930.71
2016-11-11T12:10:38.968Z,930.75
2016-11-11T12:11:49.290Z,930.77
2016-11-11T12:12:59.616Z,930.74
2016-11-11T12:14:09.940Z,930.75
2016-11-11T12:15:20.265Z,930.77
2016-11-11T12:16:30.786Z,930.79
2016-11-11T12:17:55.677Z,930.8
2016-11-11T12:19:06.006Z,930.83
2016-11-11T12:20:16.333Z,930.84
2016-11-11T12:21:26.654Z,930.91
2016-11-11T12:22:37.113Z,930.9
2016-11-11T12:23:47.445Z,930.91
2016-11-11T12:24:57.773Z,930.95
2016-11-11T12:26:08.101Z,930.96
2016-11-11T12:27:18.630Z,930.92
2016-11-11T12:28:43.525Z,930.94
2016-11-11T12:29:53.853Z,930.89
2016-11-11T12:31:04.211Z,930.87
2016-11-11T12:32:29.106Z,930.95
2016-11-11T12:33:54.005Z,930.94
2016-11-11T12:35:04.341Z,930.96
2016-11-11T12:36:14.675Z,930.98
2016-11-11T12:37:24.997Z,931
2016-11-11T12:38:35.321Z,931.05
2016-11-11T12:39:45.649Z,931.02
2016-11-11T12:40:55.977Z,931.04
2016-11-11T12:42:06.308Z,930.97
2016-11-11T12:43:31.275Z,930.98
2016-11-11T12:44:41.686Z,930.97
2016-11-11T12:45:52.107Z,931.02
2016-11-11T12:47:02.529Z,930.99
2016-11-11T12:48:12.948Z,931.04
2016-11-11T12:49:23.367Z,931.02
2016-11-11T12:50:33.786Z,931.03
2016-11-11T12:51:44.206Z,931.06
2016-11-11T12:52:54.633Z,931.03
2016-11-11T12:54:19.599Z,931.08
2016-11-11T12:55:30.015Z,931.05
2016-11-11T12:56:40.433Z,931.05
2016-11-11T12:57:51.335Z,931.02
2016-11-11T12:59:01.748Z,931.03
2016-11-11T13:00:12.268Z,931.05
2016-11-11T13:01:22.682Z,931.04
2016-11-11T13:02:33.097Z,931.03
2016-11-11T13:03:43.515Z,931.04
2016-11-11T13:04:53.931Z,931.02
2016-11-11T13:06:04.548Z,931.05
2016-11-11T13:07:14.968Z,931.05
2016-11-11T13:10:04.941Z,931.02
2016-11-11T13:11:15.359Z,930.95
2016-11-11T13:12:25.782Z,930.93
2016-11-11T13:13:50.753Z,930.89
2016-11-11T13:15:01.171Z,930.76
2016-11-11T13:16:11.590Z,930.75
2016-11-11T13:17:22.043Z,930.74
2016-11-11T13:18:32.461Z,930.74
2016-11-11T13:19:42.896Z,930.73
2016-11-11T13:20:53.313Z,930.68
2016-11-11T13:22:03.734Z,930.63
2016-11-11T13:23:28.703Z,930.54
2016-11-11T13:24:39.121Z,930.55
2016-11-11T13:25:49.559Z,930.56
2016-11-11T13:27:00.105Z,930.48
2016-11-11T13:28:10.848Z,930.44
2016-11-11T13:29:21.387Z,930.46
2016-11-11T13:30:46.455Z,930.42
2016-11-11T13:31:56.992Z,930.38
2016-11-11T13:33:07.533Z,930.4
2016-11-11T13:34:18.571Z,930.36
2016-11-11T13:35:29.109Z,930.43
2016-11-11T13:36:39.646Z,930.38
2016-11-11T13:37:50.183Z,930.34
2016-11-11T13:39:00.730Z,930.37
2016-11-11T13:40:25.961Z,930.4
2016-11-11T13:41:36.512Z,930.41
2016-11-11T13:44:12.118Z,930.31
2016-11-11T13:45:22.655Z,930.25
2016-11-11T13:46:33.694Z,930.25
2016-11-11T13:47:44.238Z,930.25
2016-11-11T13:48:54.875Z,930.28
2016-11-11T13:50:05.503Z,930.24
2016-11-11T13:51:30.569Z,930.28
2016-11-11T13:52:41.112Z,930.23
2016-11-11T13:53:51.652Z,930.27
2016-11-11T13:55:02.191Z,930.3
2016-11-11T13:56:27.770Z,930.29
2016-11-11T13:57:38.315Z,930.23
2016-11-11T13:58:49.350Z,930.25
2016-11-11T14:00:29.131Z,930.22
2016-11-11T14:01:42.187Z,930.16
2016-11-11T14:03:08.579Z,930.16
2016-11-11T14:04:19.407Z,930.12
2016-11-11T14:05:29.980Z,930.13
2016-11-11T14:06:41.022Z,930.11
2016-11-11T14:07:51.563Z,930.14
2016-11-11T14:10:27.171Z,930.12
2016-11-11T14:11:38.206Z,930.15
2016-11-11T14:12:48.749Z,930.14
2016-11-11T14:14:13.813Z,930.17
2016-11-11T14:15:24.585Z,930.14
2016-11-11T14:16:35.960Z,930.1
2016-11-11T14:17:46.501Z,930.06
2016-11-11T14:18:57.034Z,930.01
2016-11-11T14:20:08.066Z,929.97
2016-11-11T14:21:18.606Z,930
2016-11-11T14:22:29.147Z,929.97
2016-11-11T14:23:39.688Z,930
2016-11-11T14:25:04.756Z,929.99
2016-11-11T14:26:15.496Z,929.97
2016-11-11T14:27:26.031Z,929.91
2016-11-11T14:28:36.594Z,929.92
2016-11-11T14:29:47.132Z,929.86
2016-11-11T14:30:57.667Z,929.9
2016-11-11T14:32:08.204Z,929.83
2016-11-11T14:33:18.743Z,929.84
2016-11-11T14:34:29.346Z,929.8
2016-11-11T14:35:39.883Z,929.77
2016-11-11T14:36:50.947Z,929.83
2016-11-11T14:38:01.486Z,929.8
2016-11-11T14:39:12.023Z,929.79
2016-11-11T14:40:22.559Z,929.82
2016-11-11T14:41:33.096Z,929.73
2016-11-11T14:42:43.635Z,929.71
2016-11-11T14:43:54.964Z,929.71
2016-11-11T14:45:05.503Z,929.71
2016-11-11T14:46:30.587Z,929.7
2016-11-11T14:47:41.155Z,929.76
2016-11-11T14:48:51.690Z,929.72
2016-11-11T14:50:02.299Z,929.7
2016-11-11T14:51:12.839Z,929.68
2016-11-11T14:52:23.380Z,929.68
2016-11-11T14:53:34.728Z,929.66
2016-11-11T14:54:45.264Z,929.62
2016-11-11T14:55:55.801Z,929.55
2016-11-11T14:57:06.338Z,929.54
2016-11-11T14:58:16.881Z,929.48
2016-11-11T14:59:27.425Z,929.45
2016-11-11T15:00:37.961Z,929.41
2016-11-11T15:01:48.497Z,929.39
2016-11-11T15:02:59.035Z,929.34
2016-11-11T15:04:09.573Z,929.35
2016-11-11T15:05:20.118Z,929.37
2016-11-11T15:06:30.663Z,929.31
2016-11-11T15:07:41.202Z,929.32
2016-11-11T15:08:51.736Z,929.29
2016-11-11T15:10:02.283Z,929.31
2016-11-11T15:11:12.823Z,929.34
2016-11-11T15:12:23.370Z,929.26
2016-11-11T15:13:33.915Z,929.25
2016-11-11T15:14:44.453Z,929.21
2016-11-11T15:16:10.028Z,929.26